| time (UTC) | temp F | wind direction | speed MPH | gust MPH | rain 1hr in | rain 24hr in | rain mn in | humidity % | barometer mb |
| 20260508225519 | 70 | 220 | 4.0 | 10.0 | 0.00 | 0.00 | 0.00 | 34 | 1044.5 |
| 20260508225016 | 70 | 289 | 9.0 | 10.0 | 0.00 | 0.00 | 0.00 | 31 | 1044.5 |
| 20260508224514 | 71 | 284 | 6.0 | 10.0 | 0.00 | 0.00 | 0.00 | 33 | 1044.8 |
| 20260508224011 | 71 | 232 | 4.0 | 7.0 | 0.00 | 0.00 | 0.00 | 31 | 1044.5 |
| 20260508223509 | 70 | 251 | 5.0 | 13.0 | 0.00 | 0.00 | 0.00 | 32 | 1044.5 |
| 20260508223006 | 71 | 298 | 6.0 | 9.0 | 0.00 | 0.00 | 0.00 | 33 | 1044.7 |
| 20260508222503 | 71 | 318 | 9.0 | 10.0 | 0.00 | 0.00 | 0.00 | 34 | 1044.6 |
| 20260508221959 | 71 | 247 | 5.0 | 9.0 | 0.00 | 0.00 | 0.00 | 32 | 1044.4 |
| 20260508221456 | 71 | 302 | 5.0 | 11.0 | 0.00 | 0.00 | 0.00 | 31 | 1044.7 |
| 20260508220952 | 71 | 216 | 6.0 | 9.0 | 0.00 | 0.00 | 0.00 | 33 | 1044.5 |
| 20260508220448 | 71 | 237 | 3.0 | 6.0 | 0.00 | 0.00 | 0.00 | 36 | 1044.5 |
| 20260508215944 | 71 | 227 | 7.0 | 10.0 | 0.00 | 0.00 | 0.00 | 32 | 1044.5 |
| 20260508215442 | 71 | 254 | 8.0 | 11.0 | 0.00 | 0.00 | 0.00 | 31 | 1044.4 |
| 20260508214938 | 71 | 238 | 5.0 | 9.0 | 0.00 | 0.00 | 0.00 | 33 | 1044.3 |
| 20260508214437 | 71 | 306 | 5.0 | 8.0 | 0.00 | 0.00 | 0.00 | 34 | 1044.5 |
| 20260508213932 | 71 | 287 | 6.0 | 10.0 | 0.00 | 0.00 | 0.00 | 30 | 1044.4 |
| 20260508213430 | 71 | 239 | 5.0 | 9.0 | 0.00 | 0.00 | 0.00 | 30 | 1044.1 |
| 20260508212925 | 71 | 252 | 10.0 | 13.0 | 0.00 | 0.00 | 0.00 | 31 | 1044.2 |
| 20260508212422 | 71 | 280 | 7.0 | 10.0 | 0.00 | 0.00 | 0.00 | 30 | 1044.0 |
| 20260508211918 | 71 | 301 | 5.0 | 14.0 | 0.00 | 0.00 | 0.00 | 31 | 1044.4 |
| 20260508211414 | 71 | 205 | 2.0 | 8.0 | 0.00 | 0.00 | 0.00 | 30 | 1044.5 |
| 20260508210911 | 71 | 250 | 8.0 | 10.0 | 0.00 | 0.00 | 0.00 | 31 | 1044.7 |
| 20260508210408 | 71 | 326 | 8.0 | 11.0 | 0.00 | 0.00 | 0.00 | 31 | 1044.6 |
| 20260508205904 | 71 | 305 | 4.0 | 9.0 | 0.00 | 0.00 | 0.00 | 35 | 1044.7 |
| 20260508205401 | 71 | 263 | 6.0 | 8.0 | 0.00 | 0.00 | 0.00 | 31 | 1044.8 |
| 20260508204857 | 71 | 239 | 4.0 | 7.0 | 0.00 | 0.00 | 0.00 | 35 | 1045.0 |
| 20260508204354 | 71 | 240 | 5.0 | 10.0 | 0.00 | 0.00 | 0.00 | 30 | 1044.9 |
| 20260508203850 | 71 | 284 | 5.0 | 8.0 | 0.00 | 0.00 | 0.00 | 33 | 1045.1 |
| 20260508203346 | 71 | 273 | 3.0 | 8.0 | 0.00 | 0.00 | 0.00 | 38 | 1045.3 |
| 20260508202842 | 70 | 214 | 6.0 | 9.0 | 0.00 | 0.00 | 0.00 | 32 | 1045.2 |
| 20260508202340 | 71 | 213 | 7.0 | 14.0 | 0.00 | 0.00 | 0.00 | 33 | 1045.3 |
| 20260508201837 | 71 | 249 | 8.0 | 10.0 | 0.00 | 0.00 | 0.00 | 36 | 1045.5 |
| 20260508201334 | 71 | 250 | 10.0 | 11.0 | 0.00 | 0.00 | 0.00 | 32 | 1045.6 |
| 20260508200830 | 71 | 229 | 6.0 | 15.0 | 0.00 | 0.00 | 0.00 | 34 | 1045.7 |
| 20260508200327 | 71 | 241 | 8.0 | 14.0 | 0.00 | 0.00 | 0.00 | 32 | 1045.9 |
| 20260508195822 | 71 | 250 | 2.0 | 4.0 | 0.00 | 0.00 | 0.00 | 40 | 1045.5 |
| 20260508195320 | 70 | 193 | 6.0 | 10.0 | 0.00 | 0.00 | 0.00 | 36 | 1045.4 |
| 20260508194816 | 71 | 216 | 10.0 | 14.0 | 0.00 | 0.00 | 0.00 | 34 | 1045.5 |
| 20260508194313 | 70 | 208 | 9.0 | 11.0 | 0.00 | 0.00 | 0.00 | 34 | 1045.6 |
| 20260508193810 | 70 | 218 | 3.0 | 11.0 | 0.00 | 0.00 | 0.00 | 31 | 1045.4 |
| 20260508193307 | 70 | 264 | 10.0 | 13.0 | 0.00 | 0.00 | 0.00 | 33 | 1045.7 |
| 20260508192803 | 70 | 256 | 4.0 | 13.0 | 0.00 | 0.00 | 0.00 | 36 | 1045.8 |
| 20260508192300 | 70 | 315 | 8.0 | 10.0 | 0.00 | 0.00 | 0.00 | 34 | 1045.7 |
| 20260508191757 | 69 | 184 | 9.0 | 13.0 | 0.00 | 0.00 | 0.00 | 33 | 1045.9 |
| 20260508191254 | 69 | 253 | 7.0 | 11.0 | 0.00 | 0.00 | 0.00 | 34 | 1045.9 |
| 20260508190752 | 69 | 244 | 6.0 | 13.0 | 0.00 | 0.00 | 0.00 | 37 | 1045.8 |
| 20260508190247 | 69 | 219 | 10.0 | 15.0 | 0.00 | 0.00 | 0.00 | 35 | 1046.0 |
| 20260508185744 | 69 | 244 | 3.0 | 13.0 | 0.00 | 0.00 | 0.00 | 35 | 1046.2 |
| 20260508185242 | 70 | 249 | 13.0 | 15.0 | 0.00 | 0.00 | 0.00 | 33 | 1046.1 |
| 20260508184738 | 69 | 225 | 4.0 | 8.0 | 0.00 | 0.00 | 0.00 | 36 | 1046.1 |
| 20260508184236 | 69 | 176 | 6.0 | 10.0 | 0.00 | 0.00 | 0.00 | 37 | 1046.3 |
| 20260508183732 | 70 | 281 | 8.0 | 11.0 | 0.00 | 0.00 | 0.00 | 33 | 1046.2 |
| 20260508183228 | 69 | 190 | 8.0 | 9.0 | 0.00 | 0.00 | 0.00 | 41 | 1046.5 |
| 20260508182725 | 69 | 242 | 9.0 | 11.0 | 0.00 | 0.00 | 0.00 | 36 | 1046.5 |
| 20260508182222 | 69 | 225 | 6.0 | 14.0 | 0.00 | 0.00 | 0.00 | 37 | 1046.5 |
| 20260508181718 | 69 | 259 | 5.0 | 10.0 | 0.00 | 0.00 | 0.00 | 37 | 1046.9 |
| 20260508181215 | 69 | 199 | 7.0 | 9.0 | 0.00 | 0.00 | 0.00 | 39 | 1047.0 |
| 20260508180711 | 68 | 247 | 6.0 | 13.0 | 0.00 | 0.00 | 0.00 | 37 | 1047.2 |
| 20260508180208 | 68 | 262 | 8.0 | 17.0 | 0.00 | 0.00 | 0.00 | 34 | 1047.2 |
| 20260508175705 | 69 | 192 | 3.0 | 9.0 | 0.00 | 0.00 | 0.00 | 35 | 1047.2 |
| 20260508175201 | 69 | 233 | 5.0 | 11.0 | 0.00 | 0.00 | 0.00 | 36 | 1047.4 |
| 20260508174659 | 68 | 247 | 5.0 | 7.0 | 0.00 | 0.00 | 0.00 | 41 | 1047.5 |
| 20260508174155 | 68 | 287 | 6.0 | 8.0 | 0.00 | 0.00 | 0.00 | 35 | 1047.7 |
| 20260508173652 | 67 | 303 | 11.0 | 14.0 | 0.00 | 0.00 | 0.00 | 35 | 1047.7 |
| 20260508173148 | 67 | 190 | 6.0 | 9.0 | 0.00 | 0.00 | 0.00 | 36 | 1047.9 |
| 20260508172646 | 68 | 216 | 6.0 | 11.0 | 0.00 | 0.00 | 0.00 | 34 | 1047.9 |
| 20260508172143 | 67 | 263 | 4.0 | 9.0 | 0.00 | 0.00 | 0.00 | 35 | 1048.0 |
| 20260508171639 | 67 | 255 | 5.0 | 7.0 | 0.00 | 0.00 | 0.00 | 39 | 1047.9 |
| 20260508171136 | 68 | 253 | 3.0 | 9.0 | 0.00 | 0.00 | 0.00 | 35 | 1048.2 |
| 20260508170633 | 67 | 235 | 2.0 | 3.0 | 0.00 | 0.00 | 0.00 | 42 | 1048.1 |
| 20260508170130 | 67 | 260 | 5.0 | 8.0 | 0.00 | 0.00 | 0.00 | 37 | 1048.5 |
| 20260508165627 | 67 | 235 | 1.0 | 6.0 | 0.00 | 0.00 | 0.00 | 38 | 1048.6 |
| 20260508165124 | 67 | 187 | 5.0 | 8.0 | 0.00 | 0.00 | 0.00 | 38 | 1048.6 |
| 20260508164620 | 67 | 257 | 4.0 | 7.0 | 0.00 | 0.00 | 0.00 | 38 | 1048.7 |
| 20260508164118 | 67 | 297 | 6.0 | 10.0 | 0.00 | 0.00 | 0.00 | 42 | 1048.7 |
| 20260508163615 | 66 | 229 | 4.0 | 8.0 | 0.00 | 0.00 | 0.00 | 38 | 1049.1 |
| 20260508163112 | 66 | 311 | 8.0 | 9.0 | 0.00 | 0.00 | 0.00 | 41 | 1049.0 |
| 20260508162608 | 66 | 293 | 4.0 | 8.0 | 0.00 | 0.00 | 0.00 | 37 | 1049.1 |
| 20260508162106 | 65 | 302 | 6.0 | 8.0 | 0.00 | 0.00 | 0.00 | 41 | 1049.0 |
| 20260508161602 | 65 | 239 | 4.0 | 8.0 | 0.00 | 0.00 | 0.00 | 41 | 1049.1 |
| 20260508161100 | 66 | 271 | 7.0 | 13.0 | 0.00 | 0.00 | 0.00 | 38 | 1049.3 |
| 20260508160558 | 65 | 266 | 3.0 | 10.0 | 0.00 | 0.00 | 0.00 | 38 | 1049.5 |
| 20260508160054 | 65 | 232 | 5.0 | 7.0 | 0.00 | 0.00 | 0.00 | 41 | 1049.4 |
| 20260508155552 | 65 | 222 | 4.0 | 9.0 | 0.00 | 0.00 | 0.00 | 43 | 1049.3 |
| 20260508155049 | 65 | 282 | 5.0 | 9.0 | 0.00 | 0.00 | 0.00 | 41 | 1049.6 |
| 20260508154546 | 65 | 320 | 2.0 | 7.0 | 0.00 | 0.00 | 0.00 | 40 | 1049.5 |
| 20260508154043 | 65 | 268 | 4.0 | 6.0 | 0.00 | 0.00 | 0.00 | 39 | 1049.6 |
| 20260508153539 | 64 | 231 | 3.0 | 8.0 | 0.00 | 0.00 | 0.00 | 46 | 1049.7 |
| 20260508153036 | 64 | 263 | 6.0 | 9.0 | 0.00 | 0.00 | 0.00 | 39 | 1049.7 |
| 20260508152533 | 64 | 259 | 4.0 | 9.0 | 0.00 | 0.00 | 0.00 | 40 | 1049.7 |
| 20260508152028 | 64 | 304 | 6.0 | 6.0 | 0.00 | 0.00 | 0.00 | 45 | 1049.7 |
| 20260508151525 | 64 | 262 | 5.0 | 13.0 | 0.00 | 0.00 | 0.00 | 44 | 1050.0 |
| 20260508151022 | 64 | 295 | 3.0 | 7.0 | 0.00 | 0.00 | 0.00 | 41 | 1049.8 |
| 20260508150519 | 64 | 224 | 4.0 | 10.0 | 0.00 | 0.00 | 0.00 | 42 | 1049.9 |
| 20260508150015 | 63 | 188 | 4.0 | 7.0 | 0.00 | 0.00 | 0.00 | 44 | 1049.9 |
| 20260508145512 | 63 | 251 | 5.0 | 7.0 | 0.00 | 0.00 | 0.00 | 45 | 1049.9 |
| 20260508145008 | 63 | 201 | 2.0 | 6.0 | 0.00 | 0.00 | 0.00 | 44 | 1049.9 |
| 20260508144506 | 62 | 305 | 5.0 | 9.0 | 0.00 | 0.00 | 0.00 | 41 | 1050.0 |
| 20260508144003 | 62 | 227 | 7.0 | 8.0 | 0.00 | 0.00 | 0.00 | 43 | 1049.9 |
| 20260508143500 | 63 | 256 | 4.0 | 6.0 | 0.00 | 0.00 | 0.00 | 46 | 1050.0 |
| 20260508142956 | 62 | 221 | 3.0 | 4.0 | 0.00 | 0.00 | 0.00 | 47 | 1050.0 |
| 20260508142454 | 61 | 281 | 2.0 | 7.0 | 0.00 | 0.00 | 0.00 | 48 | 1049.9 |
| 20260508141950 | 61 | 233 | 4.0 | 6.0 | 0.00 | 0.00 | 0.00 | 50 | 1049.9 |
| 20260508141447 | 60 | 229 | 3.0 | 6.0 | 0.00 | 0.00 | 0.00 | 51 | 1049.9 |
| 20260508140945 | 60 | 295 | 5.0 | 9.0 | 0.00 | 0.00 | 0.00 | 49 | 1049.9 |
| 20260508140442 | 60 | 255 | 4.0 | 7.0 | 0.00 | 0.00 | 0.00 | 50 | 1049.9 |
| 20260508135937 | 60 | 249 | 5.0 | 7.0 | 0.00 | 0.00 | 0.00 | 53 | 1050.0 |
| 20260508135434 | 59 | 289 | 2.0 | 4.0 | 0.00 | 0.00 | 0.00 | 57 | 1049.9 |
| 20260508134930 | 59 | 299 | 4.0 | 6.0 | 0.00 | 0.00 | 0.00 | 55 | 1050.2 |
| 20260508134427 | 58 | 215 | 3.0 | 6.0 | 0.00 | 0.00 | 0.00 | 56 | 1050.1 |
| 20260508133924 | 58 | 307 | 4.0 | 6.0 | 0.00 | 0.00 | 0.00 | 54 | 1050.1 |
| 20260508133421 | 58 | 215 | 6.0 | 6.0 | 0.00 | 0.00 | 0.00 | 55 | 1050.1 |
| 20260508132918 | 57 | 265 | 2.0 | 4.0 | 0.00 | 0.00 | 0.00 | 61 | 1050.0 |
| 20260508132416 | 56 | 312 | 2.0 | 3.0 | 0.00 | 0.00 | 0.00 | 60 | 1050.0 |
| 20260508131913 | 56 | 315 | 3.0 | 6.0 | 0.00 | 0.00 | 0.00 | 60 | 1050.1 |
| 20260508131408 | 55 | 255 | 2.0 | 6.0 | 0.00 | 0.00 | 0.00 | 58 | 1050.0 |
| 20260508130905 | 54 | 276 | 3.0 | 3.0 | 0.00 | 0.00 | 0.00 | 64 | 1050.0 |
| 20260508130402 | 51 | 244 | 3.0 | 4.0 | 0.00 | 0.00 | 0.00 | 69 | 1050.0 |
| 20260508125858 | 49 | 121 | 0.0 | 1.0 | 0.00 | 0.00 | 0.00 | 93 | 1050.1 |
| 20260508125354 | 48 | 120 | 0.0 | 1.0 | 0.00 | 0.00 | 0.00 | 97 | 1050.1 |
| 20260508124852 | 47 | 121 | 0.0 | 0.0 | 0.00 | 0.00 | 0.00 | 98 | 1050.0 |
| 20260508124349 | 45 | 120 | 0.0 | 1.0 | 0.00 | 0.00 | 0.00 | 98 | 1049.9 |
| 20260508123847 | 44 | 120 | 0.0 | 0.0 | 0.00 | 0.00 | 0.00 | 98 | 1050.1 |
| 20260508123345 | 43 | 120 | 0.0 | 1.0 | 0.00 | 0.00 | 0.00 | 98 | 1050.1 |
| 20260508122841 | 42 | 121 | 0.0 | 0.0 | 0.00 | 0.00 | 0.00 | 98 | 1050.1 |
| 20260508122338 | 41 | 121 | 0.0 | 0.0 | 0.00 | 0.00 | 0.00 | 98 | 1050.1 |
| 20260508121835 | 40 | 121 | 0.0 | 0.0 | 0.00 | 0.00 | 0.00 | 98 | 1050.1 |
| 20260508121334 | 40 | 121 | 0.0 | 0.0 | 0.00 | 0.00 | 0.00 | 98 | 1050.2 |
| 20260508120831 | 39 | 121 | 0.0 | 0.0 | 0.00 | 0.00 | 0.00 | 98 | 1050.1 |
| 20260508120329 | 38 | 121 | 0.0 | 0.0 | 0.00 | 0.00 | 0.00 | 98 | 1050.0 |
| 20260508115826 | 37 | 121 | 0.0 | 0.0 | 0.00 | 0.00 | 0.00 | 98 | 1050.1 |
| 20260508115324 | 37 | 121 | 0.0 | 0.0 | 0.00 | 0.00 | 0.00 | 98 | 1050.1 |
| 20260508114820 | 36 | 121 | 0.0 | 0.0 | 0.00 | 0.00 | 0.00 | 98 | 1050.1 |
| 20260508114317 | 36 | 121 | 0.0 | 0.0 | 0.00 | 0.00 | 0.00 | 98 | 1050.0 |
| 20260508113813 | 36 | 121 | 0.0 | 0.0 | 0.00 | 0.00 | 0.00 | 98 | 1049.9 |
| 20260508113312 | 36 | 121 | 0.0 | 0.0 | 0.00 | 0.00 | 0.00 | 97 | 1049.8 |
| 20260508112808 | 35 | 121 | 0.0 | 0.0 | 0.00 | 0.00 | 0.00 | 97 | 1049.8 |
| 20260508112307 | 35 | 121 | 0.0 | 0.0 | 0.00 | 0.00 | 0.00 | 97 | 1049.6 |
| 20260508111801 | 35 | 121 | 0.0 | 0.0 | 0.00 | 0.00 | 0.00 | 97 | 1049.6 |
| 20260508111259 | 35 | 121 | 0.0 | 0.0 | 0.00 | 0.00 | 0.00 | 97 | 1049.6 |
| 20260508110756 | 35 | 121 | 0.0 | 0.0 | 0.00 | 0.00 | 0.00 | 97 | 1049.6 |
| 20260508110253 | 35 | 121 | 0.0 | 0.0 | 0.00 | 0.00 | 0.00 | 97 | 1049.5 |
| 20260508105753 | 34 | 121 | 0.0 | 0.0 | 0.00 | 0.00 | 0.00 | 97 | 1049.5 |
| 20260508105250 | 34 | 121 | 0.0 | 0.0 | 0.00 | 0.00 | 0.00 | 97 | 1049.4 |
| 20260508104747 | 34 | 121 | 0.0 | 0.0 | 0.00 | 0.00 | 0.00 | 97 | 1049.4 |
| 20260508104244 | 34 | 121 | 0.0 | 0.0 | 0.00 | 0.00 | 0.00 | 97 | 1049.4 |
| 20260508103742 | 34 | 121 | 0.0 | 0.0 | 0.00 | 0.00 | 0.00 | 97 | 1049.5 |
| 20260508103238 | 34 | 121 | 0.0 | 0.0 | 0.00 | 0.00 | 0.00 | 97 | 1049.2 |
| 20260508102735 | 34 | 121 | 0.0 | 0.0 | 0.00 | 0.00 | 0.00 | 97 | 1049.3 |
| 20260508102233 | 34 | 121 | 0.0 | 0.0 | 0.00 | 0.00 | 0.00 | 97 | 1049.2 |
| 20260508101730 | 34 | 121 | 0.0 | 0.0 | 0.00 | 0.00 | 0.00 | 97 | 1049.2 |
| 20260508101228 | 34 | 121 | 0.0 | 0.0 | 0.00 | 0.00 | 0.00 | 97 | 1049.1 |
| 20260508100726 | 34 | 121 | 0.0 | 0.0 | 0.00 | 0.00 | 0.00 | 97 | 1049.1 |
| 20260508100224 | 35 | 121 | 0.0 | 0.0 | 0.00 | 0.00 | 0.00 | 97 | 1049.2 |
| 20260508095719 | 34 | 121 | 0.0 | 0.0 | 0.00 | 0.00 | 0.00 | 97 | 1049.2 |
| 20260508095217 | 34 | 121 | 0.0 | 0.0 | 0.00 | 0.00 | 0.00 | 97 | 1049.1 |
| 20260508094713 | 34 | 121 | 0.0 | 0.0 | 0.00 | 0.00 | 0.00 | 97 | 1049.2 |
| 20260508094210 | 35 | 121 | 0.0 | 0.0 | 0.00 | 0.00 | 0.00 | 97 | 1049.2 |
| 20260508093707 | 35 | 121 | 0.0 | 0.0 | 0.00 | 0.00 | 0.00 | 97 | 1049.2 |
| 20260508093206 | 35 | 121 | 0.0 | 0.0 | 0.00 | 0.00 | 0.00 | 97 | 1049.3 |
| 20260508092702 | 35 | 121 | 0.0 | 0.0 | 0.00 | 0.00 | 0.00 | 97 | 1049.2 |
| 20260508092201 | 35 | 121 | 0.0 | 0.0 | 0.00 | 0.00 | 0.00 | 97 | 1049.2 |
| 20260508091658 | 35 | 121 | 0.0 | 0.0 | 0.00 | 0.00 | 0.00 | 97 | 1049.1 |
| 20260508091155 | 35 | 121 | 1.0 | 1.0 | 0.00 | 0.00 | 0.00 | 97 | 1049.3 |
| 20260508090652 | 35 | 121 | 0.0 | 0.0 | 0.00 | 0.00 | 0.00 | 97 | 1049.4 |
| 20260508090150 | 35 | 120 | 0.0 | 0.0 | 0.00 | 0.00 | 0.00 | 97 | 1049.3 |
| 20260508085645 | 35 | 121 | 0.0 | 0.0 | 0.00 | 0.00 | 0.00 | 97 | 1049.3 |
| 20260508085143 | 35 | 121 | 0.0 | 0.0 | 0.00 | 0.00 | 0.00 | 97 | 1049.3 |
| 20260508084639 | 35 | 120 | 0.0 | 0.0 | 0.00 | 0.00 | 0.00 | 97 | 1049.3 |
| 20260508084136 | 35 | 120 | 0.0 | 0.0 | 0.00 | 0.00 | 0.00 | 97 | 1049.4 |
| 20260508083634 | 35 | 120 | 0.0 | 0.0 | 0.00 | 0.00 | 0.00 | 97 | 1049.3 |
| 20260508083131 | 35 | 120 | 0.0 | 0.0 | 0.00 | 0.00 | 0.00 | 97 | 1049.2 |
| 20260508082626 | 35 | 120 | 0.0 | 0.0 | 0.00 | 0.00 | 0.00 | 97 | 1049.3 |
| 20260508082124 | 35 | 120 | 0.0 | 0.0 | 0.00 | 0.00 | 0.00 | 97 | 1049.4 |
| 20260508081621 | 35 | 120 | 0.0 | 0.0 | 0.00 | 0.00 | 0.00 | 97 | 1049.3 |
| 20260508081117 | 35 | 120 | 0.0 | 0.0 | 0.00 | 0.00 | 0.00 | 97 | 1049.4 |
| 20260508080615 | 35 | 120 | 0.0 | 0.0 | 0.00 | 0.00 | 0.00 | 97 | 1049.1 |
| 20260508080113 | 35 | 121 | 0.0 | 0.0 | 0.00 | 0.00 | 0.00 | 97 | 1049.2 |
| 20260508075609 | 35 | 121 | 0.0 | 0.0 | 0.00 | 0.00 | 0.00 | 96 | 1049.2 |
| 20260508075106 | 35 | 121 | 0.0 | 0.0 | 0.00 | 0.00 | 0.00 | 96 | 1049.3 |
| 20260508074604 | 35 | 121 | 0.0 | 0.0 | 0.00 | 0.00 | 0.00 | 96 | 1049.2 |
| 20260508074101 | 36 | 121 | 0.0 | 0.0 | 0.00 | 0.00 | 0.00 | 96 | 1049.5 |
| 20260508073558 | 36 | 121 | 0.0 | 0.0 | 0.00 | 0.00 | 0.00 | 96 | 1049.1 |
| 20260508073056 | 36 | 121 | 0.0 | 1.0 | 0.00 | 0.00 | 0.00 | 96 | 1049.3 |
| 20260508072551 | 36 | 121 | 0.0 | 0.0 | 0.00 | 0.00 | 0.00 | 97 | 1049.1 |
| 20260508072048 | 36 | 119 | 0.0 | 0.0 | 0.00 | 0.00 | 0.00 | 96 | 1049.3 |
| 20260508071546 | 36 | 119 | 0.0 | 0.0 | 0.00 | 0.00 | 0.00 | 96 | 1049.4 |
| 20260508071044 | 36 | 119 | 0.0 | 0.0 | 0.00 | 0.00 | 0.00 | 96 | 1049.3 |
| 20260508070541 | 36 | 119 | 0.0 | 0.0 | 0.00 | 0.00 | 0.00 | 96 | 1049.2 |
| 20260508070040 | 37 | 119 | 0.0 | 0.0 | 0.00 | 0.00 | 0.00 | 96 | 1049.3 |
| 20260508065537 | 37 | 119 | 0.0 | 1.0 | 0.00 | 0.00 | 0.00 | 96 | 1049.4 |
| 20260508065035 | 37 | 120 | 1.0 | 1.0 | 0.00 | 0.00 | 0.00 | 96 | 1049.3 |
| 20260508064532 | 37 | 120 | 0.0 | 0.0 | 0.00 | 0.00 | 0.00 | 96 | 1049.4 |
| 20260508064030 | 37 | 120 | 0.0 | 0.0 | 0.00 | 0.00 | 0.00 | 96 | 1049.5 |
| 20260508063527 | 37 | 120 | 0.0 | 0.0 | 0.00 | 0.00 | 0.00 | 96 | 1049.4 |
| 20260508063025 | 37 | 120 | 0.0 | 0.0 | 0.00 | 0.00 | 0.00 | 96 | 1049.3 |
| 20260508062522 | 37 | 120 | 0.0 | 0.0 | 0.00 | 0.00 | 0.00 | 96 | 1049.4 |
| 20260508062018 | 37 | 120 | 0.0 | 0.0 | 0.00 | 0.00 | 0.00 | 96 | 1049.4 |
| 20260508061517 | 37 | 121 | 0.0 | 0.0 | 0.00 | 0.00 | 0.00 | 96 | 1049.3 |
| 20260508061013 | 38 | 120 | 0.0 | 0.0 | 0.00 | 0.00 | 0.00 | 96 | 1049.4 |
| 20260508060510 | 38 | 121 | 0.0 | 0.0 | 0.00 | 0.00 | 0.00 | 96 | 1049.5 |
| 20260508060008 | 38 | 121 | 0.0 | 0.0 | 0.00 | 0.00 | 0.00 | 96 | 1049.5 |
| 20260508055503 | 38 | 164 | 0.0 | 1.0 | 0.00 | 0.00 | 0.00 | 96 | 1049.7 |
| 20260508055000 | 38 | 165 | 0.0 | 1.0 | 0.00 | 0.00 | 0.00 | 96 | 1049.4 |
| 20260508054457 | 38 | 165 | 0.0 | 0.0 | 0.00 | 0.00 | 0.00 | 96 | 1049.5 |
| 20260508053953 | 38 | 164 | 0.0 | 1.0 | 0.00 | 0.00 | 0.00 | 96 | 1049.8 |
| 20260508053450 | 38 | 164 | 0.0 | 0.0 | 0.00 | 0.00 | 0.00 | 96 | 1049.6 |
| 20260508052948 | 38 | 164 | 0.0 | 0.0 | 0.00 | 0.00 | 0.00 | 96 | 1049.6 |
| 20260508052446 | 38 | 164 | 0.0 | 0.0 | 0.00 | 0.00 | 0.00 | 96 | 1049.5 |
| 20260508051942 | 38 | 164 | 0.0 | 0.0 | 0.00 | 0.00 | 0.00 | 95 | 1049.6 |
| 20260508051438 | 38 | 164 | 0.0 | 0.0 | 0.00 | 0.00 | 0.00 | 95 | 1049.5 |
| 20260508050934 | 38 | 165 | 0.0 | 0.0 | 0.00 | 0.00 | 0.00 | 95 | 1049.7 |
| 20260508050431 | 38 | 164 | 0.0 | 0.0 | 0.00 | 0.00 | 0.00 | 95 | 1049.8 |
| 20260508045927 | 38 | 165 | 0.0 | 0.0 | 0.00 | 0.00 | 0.00 | 95 | 1049.5 |
| 20260508045425 | 39 | 165 | 0.0 | 0.0 | 0.00 | 0.00 | 0.00 | 95 | 1049.5 |
| 20260508044922 | 39 | 165 | 0.0 | 0.0 | 0.00 | 0.00 | 0.00 | 95 | 1049.6 |
| 20260508044419 | 39 | 165 | 0.0 | 0.0 | 0.00 | 0.00 | 0.00 | 95 | 1049.6 |
| 20260508043914 | 38 | 164 | 0.0 | 0.0 | 0.00 | 0.00 | 0.00 | 95 | 1049.5 |
| 20260508043412 | 39 | 165 | 0.0 | 0.0 | 0.00 | 0.00 | 0.00 | 95 | 1049.4 |
| 20260508042908 | 39 | 164 | 0.0 | 0.0 | 0.00 | 0.00 | 0.00 | 95 | 1049.6 |
| 20260508042406 | 39 | 165 | 0.0 | 0.0 | 0.00 | 0.00 | 0.00 | 95 | 1049.5 |
| 20260508041903 | 39 | 165 | 0.0 | 0.0 | 0.00 | 0.00 | 0.00 | 95 | 1049.5 |
| 20260508041359 | 40 | 165 | 0.0 | 0.0 | 0.00 | 0.00 | 0.00 | 95 | 1049.4 |
| 20260508040855 | 40 | 164 | 0.0 | 0.0 | 0.00 | 0.00 | 0.00 | 95 | 1049.3 |
| 20260508040353 | 40 | 164 | 0.0 | 0.0 | 0.00 | 0.00 | 0.00 | 95 | 1049.2 |
| 20260508035851 | 40 | 165 | 0.0 | 0.0 | 0.00 | 0.00 | 0.00 | 94 | 1049.5 |
| 20260508035348 | 40 | 165 | 0.0 | 0.0 | 0.00 | 0.00 | 0.00 | 95 | 1049.5 |
| 20260508034844 | 40 | 164 | 0.0 | 0.0 | 0.00 | 0.00 | 0.00 | 94 | 1049.4 |
| 20260508034342 | 40 | 165 | 0.0 | 0.0 | 0.00 | 0.00 | 0.00 | 94 | 1049.4 |
| 20260508033838 | 40 | 165 | 0.0 | 0.0 | 0.00 | 0.00 | 0.00 | 94 | 1049.3 |
| 20260508033336 | 40 | 165 | 0.0 | 0.0 | 0.00 | 0.00 | 0.00 | 94 | 1049.6 |
| 20260508032834 | 40 | 165 | 0.0 | 0.0 | 0.00 | 0.00 | 0.00 | 94 | 1049.5 |
| 20260508032331 | 41 | 165 | 0.0 | 0.0 | 0.00 | 0.00 | 0.00 | 94 | 1049.4 |
| 20260508031827 | 41 | 165 | 0.0 | 0.0 | 0.00 | 0.00 | 0.00 | 94 | 1049.3 |
| 20260508031324 | 41 | 165 | 0.0 | 0.0 | 0.00 | 0.00 | 0.00 | 93 | 1049.6 |
| 20260508030821 | 41 | 165 | 0.0 | 0.0 | 0.00 | 0.00 | 0.00 | 93 | 1049.5 |
| 20260508030318 | 41 | 165 | 0.0 | 0.0 | 0.00 | 0.00 | 0.00 | 93 | 1049.5 |
| 20260508025814 | 41 | 165 | 0.0 | 0.0 | 0.00 | 0.00 | 0.00 | 93 | 1049.5 |
| 20260508025312 | 41 | 166 | 0.0 | 0.0 | 0.00 | 0.00 | 0.00 | 93 | 1049.3 |
| 20260508024808 | 41 | 165 | 0.0 | 0.0 | 0.00 | 0.00 | 0.00 | 92 | 1049.5 |
| 20260508024305 | 41 | 166 | 0.0 | 0.0 | 0.00 | 0.00 | 0.00 | 92 | 1049.3 |
| 20260508023802 | 42 | 166 | 0.0 | 0.0 | 0.00 | 0.00 | 0.00 | 92 | 1049.4 |
| 20260508023259 | 42 | 166 | 0.0 | 0.0 | 0.00 | 0.00 | 0.00 | 92 | 1049.3 |
| 20260508022754 | 42 | 166 | 0.0 | 0.0 | 0.00 | 0.00 | 0.00 | 91 | 1049.3 |
| 20260508022251 | 42 | 166 | 0.0 | 0.0 | 0.00 | 0.00 | 0.00 | 91 | 1049.3 |
| 20260508021748 | 43 | 165 | 0.0 | 0.0 | 0.00 | 0.00 | 0.00 | 90 | 1049.4 |
| 20260508021243 | 43 | 166 | 0.0 | 0.0 | 0.00 | 0.00 | 0.00 | 89 | 1049.2 |
| 20260508020741 | 43 | 166 | 0.0 | 0.0 | 0.00 | 0.00 | 0.00 | 88 | 1049.3 |
| 20260508020238 | 44 | 165 | 0.0 | 0.0 | 0.00 | 0.00 | 0.00 | 88 | 1049.0 |
| 20260508015735 | 44 | 165 | 0.0 | 0.0 | 0.00 | 0.00 | 0.00 | 87 | 1049.1 |
| 20260508015232 | 45 | 166 | 0.0 | 0.0 | 0.00 | 0.00 | 0.00 | 85 | 1048.9 |
| 20260508014729 | 45 | 165 | 0.0 | 0.0 | 0.00 | 0.00 | 0.00 | 85 | 1048.9 |
| 20260508014226 | 46 | 166 | 0.0 | 0.0 | 0.00 | 0.00 | 0.00 | 84 | 1048.9 |
| 20260508013721 | 46 | 166 | 1.0 | 1.0 | 0.00 | 0.00 | 0.00 | 83 | 1048.6 |
| 20260508013218 | 46 | 166 | 0.0 | 0.0 | 0.00 | 0.00 | 0.00 | 79 | 1048.6 |
| 20260508012716 | 46 | 166 | 1.0 | 1.0 | 0.00 | 0.00 | 0.00 | 76 | 1048.6 |
| 20260508012213 | 47 | 166 | 1.0 | 1.0 | 0.00 | 0.00 | 0.00 | 76 | 1048.5 |
| 20260508011711 | 48 | 166 | 1.0 | 1.0 | 0.00 | 0.00 | 0.00 | 79 | 1048.6 |
| 20260508011208 | 48 | 166 | 0.0 | 0.0 | 0.00 | 0.00 | 0.00 | 73 | 1048.4 |
| 20260508010705 | 49 | 166 | 1.0 | 1.0 | 0.00 | 0.00 | 0.00 | 71 | 1048.5 |
| 20260508010203 | 49 | 166 | 1.0 | 1.0 | 0.00 | 0.00 | 0.00 | 71 | 1048.2 |
| 20260508005700 | 50 | 166 | 1.0 | 1.0 | 0.00 | 0.00 | 0.00 | 69 | 1048.1 |
| 20260508005156 | 50 | 165 | 1.0 | 1.0 | 0.00 | 0.00 | 0.00 | 68 | 1048.1 |
| 20260508004652 | 51 | 165 | 1.0 | 1.0 | 0.00 | 0.00 | 0.00 | 66 | 1048.2 |
| 20260508004148 | 51 | 165 | 1.0 | 1.0 | 0.00 | 0.00 | 0.00 | 66 | 1048.0 |
| 20260508003645 | 52 | 165 | 1.0 | 2.0 | 0.00 | 0.00 | 0.00 | 65 | 1048.2 |
| 20260508003143 | 54 | 154 | 1.0 | 1.0 | 0.00 | 0.00 | 0.00 | 58 | 1048.1 |
| 20260508002639 | 56 | 107 | 1.0 | 1.0 | 0.00 | 0.00 | 0.00 | 56 | 1047.9 |
| 20260508002137 | 58 | 105 | 1.0 | 1.0 | 0.00 | 0.00 | 0.00 | 49 | 1047.8 |
| 20260508001638 | 59 | 49 | 1.0 | 1.0 | 0.00 | 0.00 | 0.00 | 48 | 1047.9 |
| 20260508001134 | 61 | 46 | 0.0 | 0.0 | 0.00 | 0.00 | 0.00 | 42 | 1047.7 |
| 20260508000630 | 60 | 46 | 0.0 | 0.0 | 0.00 | 0.00 | 0.00 | 44 | 1047.8 |
| 20260508000127 | 61 | 46 | 1.0 | 2.0 | 0.00 | 0.00 | 0.00 | 41 | 1047.8 |
| 20260507235624 | 61 | 34 | 1.0 | 1.0 | 0.00 | 0.00 | 0.00 | 36 | 1047.7 |
| 20260507235122 | 61 | 9 | 1.0 | 3.0 | 0.00 | 0.00 | 0.00 | 38 | 1047.9 |
| 20260507234618 | 61 | 344 | 2.0 | 3.0 | 0.00 | 0.00 | 0.00 | 36 | 1047.7 |
| 20260507234114 | 61 | 311 | 2.0 | 4.0 | 0.00 | 0.00 | 0.00 | 36 | 1047.8 |
| 20260507233611 | 62 | 39 | 1.0 | 2.0 | 0.00 | 0.00 | 0.00 | 33 | 1047.6 |
| 20260507233110 | 62 | 294 | 3.0 | 7.0 | 0.00 | 0.00 | 0.00 | 35 | 1047.6 |
| 20260507232606 | 62 | 323 | 2.0 | 4.0 | 0.00 | 0.00 | 0.00 | 34 | 1047.6 |
| 20260507232103 | 62 | 339 | 4.0 | 6.0 | 0.00 | 0.00 | 0.00 | 31 | 1047.7 |
| 20260507231559 | 62 | 296 | 3.0 | 6.0 | 0.00 | 0.00 | 0.00 | 35 | 1047.8 |
| 20260507231057 | 63 | 291 | 3.0 | 4.0 | 0.00 | 0.00 | 0.00 | 33 | 1047.9 |
| 20260507230553 | 62 | 305 | 3.0 | 4.0 | 0.00 | 0.00 | 0.00 | 33 | 1048.0 |
| 20260507230050 | 62 | 340 | 3.0 | 3.0 | 0.00 | 0.00 | 0.00 | 35 | 1048.0 |
| 20260507225544 | 63 | 55 | 6.0 | 9.0 | 0.00 | 0.00 | 0.00 | 33 | 1047.8 |